createdAt,value
2023-07-03T00:00:40.380Z,98402.69
2023-07-03T00:03:07.908Z,98405.41
2023-07-03T00:05:36.456Z,98397.50
2023-07-03T00:08:03.970Z,98409.19
2023-07-03T00:10:31.427Z,98394.16
2023-07-03T00:12:58.918Z,98402.06
2023-07-03T00:15:26.382Z,98405.81
2023-07-03T00:17:53.926Z,98405.72
2023-07-03T00:20:21.467Z,98410.28
2023-07-03T00:22:49.587Z,98396.19
2023-07-03T00:25:17.160Z,98391.13
2023-07-03T00:27:45.754Z,98401.91
2023-07-03T00:30:14.488Z,98395.31
2023-07-03T00:32:42.099Z,98394.59
2023-07-03T00:35:10.072Z,98390.88
2023-07-03T00:37:37.543Z,98382.97
2023-07-03T00:40:08.386Z,98391.38
2023-07-03T00:42:36.148Z,98380.94
2023-07-03T00:45:10.058Z,98377.56
2023-07-03T00:47:39.609Z,98375.97
2023-07-03T00:50:08.088Z,98380.63
2023-07-03T00:52:35.829Z,98390.03
2023-07-03T00:55:04.490Z,98391.28
2023-07-03T00:57:32.525Z,98376.91
2023-07-03T01:00:01.082Z,98375.66
2023-07-03T01:03:03.704Z,98379.91
2023-07-03T01:05:41.557Z,98371.16
2023-07-03T01:08:13.107Z,98379.66
2023-07-03T01:10:42.658Z,98381.78
2023-07-03T01:13:18.757Z,98381.34
2023-07-03T01:15:48.202Z,98380.28
2023-07-03T01:18:16.902Z,98393.97
2023-07-03T01:21:23.755Z,98390.56
2023-07-03T01:24:18.772Z,98381.03
2023-07-03T01:26:47.943Z,98381.03
2023-07-03T01:29:17.552Z,98386.41
2023-07-03T01:31:46.150Z,98384.94
2023-07-03T01:34:14.498Z,98385.06
2023-07-03T01:36:43.284Z,98378.28
2023-07-03T01:39:11.309Z,98385.50
2023-07-03T01:41:39.843Z,98374.56
2023-07-03T01:44:07.901Z,98379.47
2023-07-03T01:46:36.358Z,98378.25
2023-07-03T01:49:04.002Z,98393.91
2023-07-03T01:52:23.109Z,98372.53
2023-07-03T01:55:21.837Z,98388.06
2023-07-03T01:58:33.972Z,98388.81
2023-07-03T02:01:23.077Z,98377.88
2023-07-03T02:04:12.067Z,98376.22
2023-07-03T02:06:45.860Z,98388.38
2023-07-03T04:43:53.015Z,98408.84
2023-07-03T04:46:25.217Z,98403.97
2023-07-03T04:49:00.706Z,98401.19
2023-07-03T04:51:32.639Z,98410.34
2023-07-03T04:54:02.108Z,98414.97
2023-07-03T04:56:33.630Z,98414.50
2023-07-03T04:59:01.221Z,98412.44
2023-07-03T05:11:17.996Z,98408.19
2023-07-03T05:13:45.727Z,98422.94
2023-07-03T05:16:13.328Z,98418.41
2023-07-03T05:18:41.525Z,98422.09
2023-07-03T05:21:09.477Z,98424.91
2023-07-03T05:23:37.403Z,98425.06
2023-07-03T05:26:05.339Z,98433.53
2023-07-03T05:28:33.436Z,98430.25
2023-07-03T05:31:01.886Z,98438.31
2023-07-03T05:33:31.768Z,98432.81
2023-07-03T05:36:03.761Z,98431.97
2023-07-03T05:38:32.097Z,98440.56
2023-07-03T05:40:59.622Z,98436.19
2023-07-03T05:43:28.136Z,98444.31
2023-07-03T05:45:55.660Z,98447.50
2023-07-03T05:48:26.013Z,98449.41
2023-07-03T05:50:53.580Z,98450.91
2023-07-03T05:53:22.573Z,98450.09
2023-07-03T05:55:59.485Z,98457.50
2023-07-03T05:58:28.977Z,98444.41
2023-07-03T06:00:57.058Z,98451.84
2023-07-03T06:03:26.415Z,98455.81
2023-07-03T06:05:54.356Z,98455.84
2023-07-03T06:08:22.162Z,98448.81
2023-07-03T06:10:49.631Z,98459.03
2023-07-03T06:13:17.877Z,98454.00
2023-07-03T06:15:45.733Z,98457.94
2023-07-03T06:18:13.469Z,98470.28
2023-07-03T06:20:41.017Z,98466.50
2023-07-03T06:23:08.669Z,98464.34
2023-07-03T06:25:36.249Z,98460.41
2023-07-03T06:28:04.251Z,98465.81
2023-07-03T06:30:31.742Z,98460.34
2023-07-03T06:32:59.292Z,98461.41
2023-07-03T06:35:27.255Z,98472.13
2023-07-03T06:37:57.338Z,98472.09
2023-07-03T06:40:25.010Z,98475.53
2023-07-03T06:42:54.475Z,98480.34
2023-07-03T06:45:22.017Z,98470.19
2023-07-03T06:47:49.585Z,98485.69
2023-07-03T06:50:17.658Z,98473.00
2023-07-03T06:52:48.670Z,98487.47
2023-07-03T06:55:16.317Z,98474.50
2023-07-03T06:57:43.868Z,98477.34
2023-07-03T07:00:12.506Z,98475.34
2023-07-03T07:02:40.176Z,98481.16
2023-07-03T07:05:08.578Z,98484.06
2023-07-03T07:07:36.173Z,98483.38
2023-07-03T07:10:04.543Z,98486.66
2023-07-03T07:12:32.080Z,98482.09
2023-07-03T07:14:59.562Z,98486.91
2023-07-03T07:17:35.591Z,98484.66
2023-07-03T07:20:14.156Z,98486.59
2023-07-03T07:22:41.623Z,98483.31
2023-07-03T07:25:09.723Z,98479.41
2023-07-03T07:27:37.226Z,98479.50
2023-07-03T07:30:05.568Z,98483.50
2023-07-03T07:32:33.048Z,98480.88
2023-07-03T07:35:00.558Z,98484.59
2023-07-03T07:37:28.001Z,98488.28
2023-07-03T07:39:55.446Z,98486.16
2023-07-03T07:42:22.953Z,98487.03
2023-07-03T07:44:50.559Z,98476.69
2023-07-03T07:47:18.045Z,98487.09
2023-07-03T07:49:46.127Z,98487.63
2023-07-03T07:52:13.686Z,98477.91
2023-07-03T07:54:41.178Z,98481.06
2023-07-03T07:57:08.975Z,98478.91
2023-07-03T07:59:37.456Z,98483.25
2023-07-03T08:02:05.404Z,98485.72
2023-07-03T08:04:34.539Z,98495.78
2023-07-03T08:07:02.215Z,98486.47
2023-07-03T08:09:29.743Z,98480.97
2023-07-03T08:11:57.306Z,98479.13
2023-07-03T08:14:24.862Z,98479.81
2023-07-03T08:16:52.578Z,98491.84
2023-07-03T08:19:20.271Z,98482.13
2023-07-03T08:21:47.781Z,98483.09
2023-07-03T08:24:15.508Z,98483.00
2023-07-03T08:26:50.248Z,98486.22
2023-07-03T08:29:18.151Z,98469.44
2023-07-03T08:31:45.752Z,98474.09
2023-07-03T08:34:13.292Z,98478.34
2023-07-03T08:39:11.109Z,98478.91
2023-07-03T08:41:56.224Z,98479.84
2023-07-03T08:44:23.889Z,98480.44
2023-07-03T08:47:09.666Z,98481.22
2023-07-03T08:49:39.318Z,98481.53
2023-07-03T08:52:08.575Z,98490.19
2023-07-03T08:54:38.898Z,98477.34
2023-07-03T08:57:12.006Z,98480.53
2023-07-03T08:59:39.990Z,98479.69
2023-07-03T09:02:22.257Z,98480.09
2023-07-03T09:05:38.558Z,98478.16
2023-07-03T09:08:15.134Z,98485.41
2023-07-03T09:10:51.034Z,98477.78
2023-07-03T09:13:44.531Z,98496.34
2023-07-03T09:16:22.697Z,98500.81
2023-07-03T09:19:07.632Z,98483.38
2023-07-03T09:21:36.950Z,98490.28
2023-07-03T09:24:27.617Z,98486.56
2023-07-03T09:27:24.807Z,98493.16
2023-07-03T09:29:53.205Z,98490.94
2023-07-03T09:32:31.718Z,98486.84
2023-07-03T09:35:21.308Z,98492.22
2023-07-03T09:37:59.536Z,98486.31
2023-07-03T09:40:38.866Z,98488.28
2023-07-03T09:43:27.198Z,98491.44
2023-07-03T09:46:17.778Z,98487.75
2023-07-03T09:48:45.933Z,98483.72
2023-07-03T09:51:30.322Z,98484.53
2023-07-03T09:54:06.996Z,98491.69
2023-07-03T09:56:35.018Z,98486.16
2023-07-03T09:59:06.897Z,98494.63
2023-07-03T10:07:09.003Z,98499.63
2023-07-03T10:12:45.569Z,98496.13
2023-07-03T10:15:30.224Z,98500.75
2023-07-03T10:18:15.210Z,98489.63
2023-07-03T10:20:45.385Z,98500.78
2023-07-03T10:23:29.077Z,98489.00
2023-07-03T10:26:39.524Z,98500.56
2023-07-03T10:29:27.591Z,98499.84
2023-07-03T10:32:17.533Z,98497.22
2023-07-03T10:35:29.487Z,98489.84
2023-07-03T10:38:12.728Z,98498.09
2023-07-03T10:40:56.959Z,98498.44
2023-07-03T10:43:34.024Z,98494.72
2023-07-03T10:46:03.477Z,98505.13
2023-07-03T10:48:34.641Z,98503.50
2023-07-03T10:51:48.226Z,98487.72
2023-07-03T10:54:31.169Z,98489.13
2023-07-03T10:57:06.625Z,98497.97
2023-07-03T10:59:43.784Z,98491.34
2023-07-03T11:02:42.725Z,98484.66
2023-07-03T11:05:36.072Z,98482.97
2023-07-03T11:08:55.864Z,98484.13
2023-07-03T11:12:34.874Z,98484.78
2023-07-03T11:16:03.806Z,98486.31
2023-07-03T11:28:51.592Z,98484.69
2023-07-03T11:31:21.241Z,98469.22
2023-07-03T11:44:50.049Z,98460.00
2023-07-03T11:47:32.267Z,98445.16
2023-07-03T11:50:06.178Z,98478.03
2023-07-03T11:52:42.477Z,98462.16
2023-07-03T11:55:20.170Z,98459.63
2023-07-03T11:58:14.517Z,98453.41
2023-07-03T12:00:45.619Z,98473.03
2023-07-03T12:03:15.685Z,98458.78
2023-07-03T12:05:49.324Z,98453.59
2023-07-03T12:08:19.626Z,98453.41
2023-07-03T12:10:56.225Z,98455.28
2023-07-03T12:13:47.655Z,98452.28
2023-07-03T12:16:26.044Z,98445.25
2023-07-03T12:19:11.551Z,98460.72
2023-07-03T12:21:47.629Z,98453.00
2023-07-03T12:24:33.448Z,98454.50
2023-07-03T12:27:08.185Z,98462.94
2023-07-03T12:29:49.369Z,98462.63
2023-07-03T12:32:49.488Z,98459.09
2023-07-03T12:35:28.485Z,98459.34
2023-07-03T12:38:06.703Z,98455.72
2023-07-03T12:40:41.873Z,98462.22
2023-07-03T12:43:10.788Z,98468.22
2023-07-03T12:45:38.459Z,98458.09
2023-07-03T12:48:24.356Z,98447.53
2023-07-03T12:50:57.857Z,98450.31
2023-07-03T12:53:35.081Z,98438.97
2023-07-03T12:56:10.522Z,98444.16
2023-07-03T12:58:39.004Z,98442.84
2023-07-03T13:01:09.300Z,98445.78
2023-07-03T13:03:43.064Z,98436.50
2023-07-03T13:06:29.493Z,98453.97
2023-07-03T13:08:59.852Z,98435.75
2023-07-03T13:11:46.097Z,98442.44
2023-07-03T13:14:29.394Z,98445.53
2023-07-03T13:17:02.487Z,98434.03
2023-07-03T13:19:37.436Z,98445.03
2023-07-03T13:22:19.509Z,98450.16
2023-07-03T13:24:52.073Z,98438.13
2023-07-03T13:27:28.245Z,98434.16
2023-07-03T13:30:36.782Z,98434.56
2023-07-03T13:33:15.168Z,98433.25
2023-07-03T13:35:49.691Z,98440.88
2023-07-03T13:38:27.726Z,98444.91
2023-07-03T13:41:00.347Z,98455.53
2023-07-03T13:43:33.652Z,98438.19
2023-07-03T13:46:02.124Z,98443.56
2023-07-03T13:48:30.654Z,98442.50
2023-07-03T13:50:58.509Z,98434.19
2023-07-03T13:53:27.748Z,98430.97
2023-07-03T13:55:55.316Z,98433.38
2023-07-03T13:58:22.879Z,98436.56
2023-07-03T14:00:50.532Z,98445.19
2023-07-03T14:03:18.294Z,98441.59
2023-07-03T14:05:45.968Z,98441.94
2023-07-03T14:08:13.780Z,98437.34
2023-07-03T14:10:41.368Z,98434.00
2023-07-03T14:13:11.010Z,98436.03
2023-07-03T14:15:39.547Z,98435.25
2023-07-03T14:18:07.188Z,98424.59
2023-07-03T14:20:34.781Z,98427.16
2023-07-03T14:23:04.508Z,98441.66
2023-07-03T14:25:32.698Z,98438.13
2023-07-03T14:28:01.396Z,98442.34
2023-07-03T14:30:28.948Z,98445.44
2023-07-03T14:32:56.763Z,98449.53
2023-07-03T14:35:25.385Z,98437.13
2023-07-03T14:37:53.234Z,98435.16
2023-07-03T14:40:21.020Z,98440.06
2023-07-03T14:42:48.773Z,98431.84
2023-07-03T14:45:16.804Z,98429.72
2023-07-03T14:47:44.406Z,98427.25
2023-07-03T14:50:13.307Z,98424.00
2023-07-03T14:52:49.265Z,98418.16
2023-07-03T14:55:19.049Z,98425.16
2023-07-03T14:57:46.990Z,98418.63
2023-07-03T15:00:15.745Z,98409.69
2023-07-03T15:02:47.235Z,98422.84
2023-07-03T15:05:16.356Z,98414.50
2023-07-03T15:07:49.945Z,98415.53
2023-07-03T15:10:18.859Z,98411.34
2023-07-03T15:12:47.233Z,98403.00
2023-07-03T15:15:15.337Z,98405.66
2023-07-03T15:17:43.107Z,98401.44
2023-07-03T15:20:11.862Z,98410.53
2023-07-03T15:22:39.348Z,98407.19
2023-07-03T15:25:07.761Z,98398.28
2023-07-03T15:27:35.373Z,98399.88
2023-07-03T15:30:03.935Z,98404.53
2023-07-03T15:32:32.818Z,98408.94
2023-07-03T15:35:00.367Z,98406.25
2023-07-03T15:37:27.975Z,98393.91
2023-07-03T15:39:55.958Z,98393.97
2023-07-03T15:42:24.307Z,98387.50
2023-07-03T15:44:59.283Z,98389.75
2023-07-03T15:47:27.844Z,98369.81
2023-07-03T15:49:58.524Z,98382.09
2023-07-03T15:52:26.863Z,98377.91
2023-07-03T15:54:54.724Z,98363.25
2023-07-03T15:57:22.944Z,98377.47
2023-07-03T15:59:50.792Z,98370.34
2023-07-03T16:02:18.367Z,98366.31
2023-07-03T16:04:45.981Z,98369.91
2023-07-03T16:07:13.483Z,98367.78
2023-07-03T16:09:40.953Z,98369.56
2023-07-03T16:12:08.631Z,98362.06
2023-07-03T16:14:36.121Z,98361.88
2023-07-03T16:17:03.678Z,98368.28
2023-07-03T16:19:32.009Z,98368.09
2023-07-03T16:21:59.526Z,98363.69
2023-07-03T16:24:26.989Z,98369.38
2023-07-03T16:26:54.460Z,98355.00
2023-07-03T16:29:21.960Z,98361.31
2023-07-03T16:31:49.619Z,98357.81
2023-07-03T16:34:17.162Z,98363.41
2023-07-03T16:36:44.608Z,98363.19
2023-07-03T16:39:12.480Z,98363.13
2023-07-03T16:41:40.935Z,98354.50
2023-07-03T16:44:08.436Z,98353.69
2023-07-03T16:46:39.580Z,98358.31
2023-07-03T16:49:08.087Z,98353.69
2023-07-03T16:51:35.583Z,98346.63
2023-07-03T16:54:03.505Z,98353.94
2023-07-03T16:56:31.115Z,98355.88
2023-07-03T16:58:59.649Z,98345.47
2023-07-03T17:01:30.877Z,98357.03
2023-07-03T17:03:59.368Z,98361.09
2023-07-03T17:06:36.406Z,98361.09
2023-07-03T17:09:05.121Z,98351.19
2023-07-03T17:11:32.838Z,98352.28
2023-07-03T17:14:01.214Z,98346.94
2023-07-03T17:16:29.988Z,98344.63
2023-07-03T17:18:57.954Z,98348.56
2023-07-03T17:21:26.556Z,98343.28
2023-07-03T17:24:06.285Z,98338.00
2023-07-03T17:26:34.424Z,98345.34
2023-07-03T17:29:04.841Z,98337.91
2023-07-03T17:31:32.937Z,98342.72
2023-07-03T17:34:01.272Z,98332.59
2023-07-03T17:36:29.428Z,98340.56
2023-07-03T17:38:56.992Z,98335.88
2023-07-03T17:41:24.965Z,98338.03
2023-07-03T17:43:53.112Z,98329.38
2023-07-03T17:46:20.627Z,98334.47
2023-07-03T17:48:48.503Z,98335.13
2023-07-03T17:51:16.102Z,98340.19
2023-07-03T17:53:45.739Z,98331.25
2023-07-03T17:56:13.993Z,98335.03
2023-07-03T17:58:43.923Z,98334.13
2023-07-03T18:01:13.104Z,98334.00
2023-07-03T18:03:41.578Z,98328.13
2023-07-03T18:06:13.652Z,98324.88
2023-07-03T18:08:41.640Z,98329.66
2023-07-03T18:11:09.265Z,98328.38
2023-07-03T18:13:37.665Z,98334.50
2023-07-03T18:16:05.499Z,98332.13
2023-07-03T18:18:33.183Z,98325.06
2023-07-03T18:21:01.110Z,98338.28
2023-07-03T18:23:28.784Z,98339.78
2023-07-03T18:25:56.813Z,98340.06
2023-07-03T18:28:25.205Z,98337.25
2023-07-03T18:31:04.450Z,98342.88
2023-07-03T18:33:34.908Z,98346.00
2023-07-03T18:36:03.408Z,98345.88
2023-07-03T18:38:31.745Z,98351.38
2023-07-03T18:41:06.864Z,98344.78
2023-07-03T18:43:34.642Z,98344.78
2023-07-03T18:46:02.222Z,98332.06
2023-07-03T18:48:29.848Z,98337.03
2023-07-03T18:50:57.375Z,98340.22
2023-07-03T18:53:25.411Z,98345.94
2023-07-03T18:55:54.202Z,98339.84
2023-07-03T18:58:21.977Z,98347.13
2023-07-03T19:00:50.105Z,98355.28
2023-07-03T19:03:17.914Z,98353.53
2023-07-03T19:06:09.829Z,98353.66
2023-07-03T19:08:37.913Z,98360.06
2023-07-03T19:11:07.775Z,98358.31
2023-07-03T19:13:35.800Z,98364.84
2023-07-03T19:16:03.514Z,98365.53
2023-07-03T19:18:31.278Z,98356.09
2023-07-03T19:20:58.732Z,98351.19
2023-07-03T19:23:26.670Z,98359.00
2023-07-03T19:26:00.126Z,98364.69
2023-07-03T19:28:27.990Z,98369.00
2023-07-03T19:31:00.675Z,98372.63
2023-07-03T19:33:31.002Z,98379.94
2023-07-03T19:36:00.557Z,98391.56
2023-07-03T19:38:28.635Z,98376.84
2023-07-03T19:40:57.055Z,98386.53
2023-07-03T19:43:24.510Z,98387.78
2023-07-03T19:45:52.078Z,98383.16
2023-07-03T19:48:19.731Z,98389.22
2023-07-03T19:50:49.187Z,98398.59
2023-07-03T19:53:17.708Z,98394.16
2023-07-03T19:55:45.739Z,98407.94
2023-07-03T19:58:13.585Z,98412.81
2023-07-03T20:00:41.433Z,98416.53
2023-07-03T20:03:11.500Z,98417.78
2023-07-03T20:05:42.828Z,98422.09
2023-07-03T20:08:10.297Z,98427.06
2023-07-03T20:10:39.005Z,98439.22
2023-07-03T20:13:06.605Z,98434.03
2023-07-03T20:15:34.105Z,98422.63
2023-07-03T20:18:01.764Z,98442.69
2023-07-03T20:20:29.625Z,98440.88
2023-07-03T20:22:58.176Z,98446.50
2023-07-03T20:25:25.901Z,98443.69
2023-07-03T20:27:54.397Z,98447.41
2023-07-03T20:30:22.447Z,98447.75
2023-07-03T20:32:50.099Z,98447.84
2023-07-03T20:35:19.209Z,98444.94
2023-07-03T20:37:46.859Z,98455.97
2023-07-03T20:40:14.514Z,98444.03
2023-07-03T20:42:42.367Z,98442.69
2023-07-03T20:45:11.417Z,98446.88
2023-07-03T20:47:39.045Z,98444.38
2023-07-03T20:50:07.949Z,98440.63
2023-07-03T20:52:41.059Z,98457.31
2023-07-03T20:55:36.663Z,98453.19
2023-07-03T20:58:04.385Z,98459.34
2023-07-03T21:00:32.014Z,98452.91
2023-07-03T21:02:59.675Z,98457.78
2023-07-03T21:05:27.989Z,98446.31
2023-07-03T21:07:56.395Z,98453.63
2023-07-03T21:10:23.840Z,98462.41
2023-07-03T21:12:51.322Z,98460.50
2023-07-03T21:15:20.059Z,98460.56
2023-07-03T21:17:48.237Z,98458.50
2023-07-03T21:20:15.842Z,98463.88
2023-07-03T21:22:43.305Z,98465.03
2023-07-03T21:25:12.027Z,98464.63
2023-07-03T21:27:39.470Z,98459.50
2023-07-03T21:30:08.371Z,98463.91
2023-07-03T21:32:36.724Z,98463.00
2023-07-03T21:35:04.469Z,98466.97
2023-07-03T21:37:32.829Z,98466.09
2023-07-03T21:40:00.398Z,98462.66
2023-07-03T21:42:27.892Z,98468.03
2023-07-03T21:44:55.373Z,98463.50
2023-07-03T21:47:22.929Z,98464.22
2023-07-03T21:49:50.617Z,98468.19
2023-07-03T21:52:18.074Z,98466.41
2023-07-03T21:54:48.833Z,98463.06
2023-07-03T21:57:19.373Z,98471.03
2023-07-03T21:59:50.394Z,98468.91
2023-07-03T22:02:17.933Z,98468.94
2023-07-03T22:04:45.600Z,98456.25
2023-07-03T22:07:13.786Z,98461.22
2023-07-03T22:09:41.302Z,98453.50
2023-07-03T22:12:12.965Z,98460.50
2023-07-03T22:14:40.774Z,98453.63
2023-07-03T22:17:08.400Z,98453.06
2023-07-03T22:19:39.794Z,98451.28
2023-07-03T22:22:08.441Z,98454.69
2023-07-03T22:24:35.961Z,98447.44
2023-07-03T22:27:07.184Z,98442.47
2023-07-03T22:29:36.795Z,98454.13
2023-07-03T22:32:04.842Z,98452.53
2023-07-03T22:34:32.360Z,98454.91
2023-07-03T22:36:59.845Z,98458.72
2023-07-03T22:39:27.333Z,98452.41
2023-07-03T22:41:54.833Z,98465.19
2023-07-03T22:44:22.332Z,98455.00
2023-07-03T22:46:53.575Z,98457.84
2023-07-03T22:49:25.517Z,98466.63
2023-07-03T22:51:53.681Z,98467.41
2023-07-03T22:54:22.973Z,98475.13
2023-07-03T22:56:50.728Z,98463.78
2023-07-03T22:59:18.329Z,98462.69
2023-07-03T23:01:49.581Z,98458.53
2023-07-03T23:04:17.905Z,98460.53
2023-07-03T23:06:47.234Z,98464.88
2023-07-03T23:09:17.958Z,98470.63
2023-07-03T23:11:45.644Z,98464.09
2023-07-03T23:14:16.782Z,98474.91
2023-07-03T23:16:47.531Z,98474.69
2023-07-03T23:19:17.896Z,98477.06
2023-07-03T23:21:53.084Z,98486.69
2023-07-03T23:24:21.955Z,98483.16
2023-07-03T23:26:53.769Z,98479.94
2023-07-03T23:29:22.315Z,98478.22
2023-07-03T23:31:51.019Z,98481.22
2023-07-03T23:34:18.824Z,98485.66
2023-07-03T23:36:49.661Z,98489.28
2023-07-03T23:39:19.260Z,98484.16
2023-07-03T23:41:47.233Z,98482.44
2023-07-03T23:44:15.914Z,98480.63
2023-07-03T23:46:43.492Z,98473.94
2023-07-03T23:49:11.324Z,98479.34
2023-07-03T23:51:38.821Z,98473.06
2023-07-03T23:54:07.080Z,98473.59
2023-07-03T23:56:35.479Z,98468.59
2023-07-03T23:59:05.053Z,98467.53
